sensor_id;sensor_type;location;lat;lon;timestamp;P1;durP1;ratioP1;P2;durP2;ratioP2
3407;SDS011;1717;50.240;8.406;2023-05-10T00:01:51;0.70;;;0.43;;
3407;SDS011;1717;50.240;8.406;2023-05-10T00:04:20;1.33;;;0.40;;
3407;SDS011;1717;50.240;8.406;2023-05-10T00:06:47;0.50;;;0.50;;
3407;SDS011;1717;50.240;8.406;2023-05-10T00:09:14;1.67;;;0.60;;
3407;SDS011;1717;50.240;8.406;2023-05-10T00:11:41;0.50;;;0.30;;
3407;SDS011;1717;50.240;8.406;2023-05-10T00:14:07;2.23;;;0.50;;
3407;SDS011;1717;50.240;8.406;2023-05-10T00:16:34;2.43;;;0.50;;
3407;SDS011;1717;50.240;8.406;2023-05-10T00:19:01;0.97;;;0.50;;
3407;SDS011;1717;50.240;8.406;2023-05-10T00:21:29;0.40;;;0.30;;
3407;SDS011;1717;50.240;8.406;2023-05-10T00:23:57;0.40;;;0.40;;
3407;SDS011;1717;50.240;8.406;2023-05-10T00:26:24;0.50;;;0.30;;
3407;SDS011;1717;50.240;8.406;2023-05-10T00:28:50;0.40;;;0.40;;
3407;SDS011;1717;50.240;8.406;2023-05-10T00:31:17;0.40;;;0.30;;
3407;SDS011;1717;50.240;8.406;2023-05-10T00:33:44;1.47;;;0.60;;
3407;SDS011;1717;50.240;8.406;2023-05-10T00:36:11;0.43;;;0.40;;
3407;SDS011;1717;50.240;8.406;2023-05-10T00:38:39;0.50;;;0.40;;
3407;SDS011;1717;50.240;8.406;2023-05-10T00:41:06;0.60;;;0.50;;
3407;SDS011;1717;50.240;8.406;2023-05-10T00:43:33;0.77;;;0.40;;
3407;SDS011;1717;50.240;8.406;2023-05-10T00:46:00;1.33;;;0.60;;
3407;SDS011;1717;50.240;8.406;2023-05-10T00:48:27;1.30;;;0.57;;
3407;SDS011;1717;50.240;8.406;2023-05-10T00:50:55;0.50;;;0.43;;
3407;SDS011;1717;50.240;8.406;2023-05-10T00:53:22;0.40;;;0.40;;
3407;SDS011;1717;50.240;8.406;2023-05-10T00:55:51;0.50;;;0.40;;
3407;SDS011;1717;50.240;8.406;2023-05-10T00:58:18;0.53;;;0.40;;
3407;SDS011;1717;50.240;8.406;2023-05-10T01:00:45;0.57;;;0.50;;
3407;SDS011;1717;50.240;8.406;2023-05-10T01:03:13;1.77;;;0.40;;
3407;SDS011;1717;50.240;8.406;2023-05-10T01:05:40;0.43;;;0.37;;
3407;SDS011;1717;50.240;8.406;2023-05-10T01:08:07;0.40;;;0.30;;
3407;SDS011;1717;50.240;8.406;2023-05-10T01:10:34;0.57;;;0.43;;
3407;SDS011;1717;50.240;8.406;2023-05-10T01:13:02;0.50;;;0.40;;
3407;SDS011;1717;50.240;8.406;2023-05-10T01:15:29;0.43;;;0.33;;
3407;SDS011;1717;50.240;8.406;2023-05-10T01:17:57;0.60;;;0.47;;
3407;SDS011;1717;50.240;8.406;2023-05-10T01:20:24;0.70;;;0.40;;
3407;SDS011;1717;50.240;8.406;2023-05-10T01:23:02;0.70;;;0.50;;
3407;SDS011;1717;50.240;8.406;2023-05-10T01:28:48;0.57;;;0.40;;
3407;SDS011;1717;50.240;8.406;2023-05-10T01:34:35;0.50;;;0.40;;
3407;SDS011;1717;50.240;8.406;2023-05-10T01:37:13;0.40;;;0.40;;
3407;SDS011;1717;50.240;8.406;2023-05-10T01:39:47;0.40;;;0.40;;
3407;SDS011;1717;50.240;8.406;2023-05-10T01:42:21;0.50;;;0.40;;
3407;SDS011;1717;50.240;8.406;2023-05-10T01:44:52;0.50;;;0.50;;
3407;SDS011;1717;50.240;8.406;2023-05-10T01:47:28;0.53;;;0.50;;
3407;SDS011;1717;50.240;8.406;2023-05-10T01:50:02;1.13;;;0.57;;
3407;SDS011;1717;50.240;8.406;2023-05-10T01:52:32;0.70;;;0.70;;
3407;SDS011;1717;50.240;8.406;2023-05-10T01:55:05;2.43;;;1.03;;
3407;SDS011;1717;50.240;8.406;2023-05-10T01:57:35;0.50;;;0.40;;
3407;SDS011;1717;50.240;8.406;2023-05-10T02:00:06;2.20;;;0.40;;
3407;SDS011;1717;50.240;8.406;2023-05-10T02:02:37;0.50;;;0.40;;
3407;SDS011;1717;50.240;8.406;2023-05-10T02:05:07;0.50;;;0.43;;
3407;SDS011;1717;50.240;8.406;2023-05-10T02:07:35;1.00;;;0.50;;
3407;SDS011;1717;50.240;8.406;2023-05-10T02:10:02;0.73;;;0.60;;
3407;SDS011;1717;50.240;8.406;2023-05-10T02:12:32;0.60;;;0.50;;
3407;SDS011;1717;50.240;8.406;2023-05-10T02:15:03;2.30;;;0.70;;
3407;SDS011;1717;50.240;8.406;2023-05-10T02:17:32;0.60;;;0.60;;
3407;SDS011;1717;50.240;8.406;2023-05-10T02:20:01;0.70;;;0.60;;
3407;SDS011;1717;50.240;8.406;2023-05-10T02:22:29;1.73;;;0.50;;
3407;SDS011;1717;50.240;8.406;2023-05-10T02:24:57;3.47;;;0.70;;
3407;SDS011;1717;50.240;8.406;2023-05-10T02:27:25;1.00;;;0.80;;
3407;SDS011;1717;50.240;8.406;2023-05-10T02:29:54;0.90;;;0.60;;
3407;SDS011;1717;50.240;8.406;2023-05-10T02:32:22;0.70;;;0.70;;
3407;SDS011;1717;50.240;8.406;2023-05-10T02:34:53;1.00;;;0.73;;
3407;SDS011;1717;50.240;8.406;2023-05-10T02:37:21;0.50;;;0.50;;
3407;SDS011;1717;50.240;8.406;2023-05-10T02:39:48;0.53;;;0.53;;
3407;SDS011;1717;50.240;8.406;2023-05-10T02:42:17;1.30;;;0.80;;
3407;SDS011;1717;50.240;8.406;2023-05-10T02:44:46;0.83;;;0.70;;
3407;SDS011;1717;50.240;8.406;2023-05-10T02:47:14;0.73;;;0.73;;
3407;SDS011;1717;50.240;8.406;2023-05-10T02:49:41;0.60;;;0.60;;
3407;SDS011;1717;50.240;8.406;2023-05-10T02:52:09;3.17;;;0.63;;
3407;SDS011;1717;50.240;8.406;2023-05-10T02:54:43;0.73;;;0.73;;
3407;SDS011;1717;50.240;8.406;2023-05-10T02:57:15;0.60;;;0.60;;
3407;SDS011;1717;50.240;8.406;2023-05-10T02:59:44;0.60;;;0.57;;
3407;SDS011;1717;50.240;8.406;2023-05-10T03:02:11;0.80;;;0.60;;
3407;SDS011;1717;50.240;8.406;2023-05-10T03:04:39;0.70;;;0.70;;
3407;SDS011;1717;50.240;8.406;2023-05-10T03:07:06;0.77;;;0.77;;
3407;SDS011;1717;50.240;8.406;2023-05-10T03:09:34;1.07;;;0.90;;
3407;SDS011;1717;50.240;8.406;2023-05-10T03:12:02;0.83;;;0.77;;
3407;SDS011;1717;50.240;8.406;2023-05-10T03:14:36;0.60;;;0.60;;
3407;SDS011;1717;50.240;8.406;2023-05-10T03:17:14;0.80;;;0.67;;
3407;SDS011;1717;50.240;8.406;2023-05-10T03:19:46;0.97;;;0.70;;
3407;SDS011;1717;50.240;8.406;2023-05-10T03:22:25;0.50;;;0.50;;
3407;SDS011;1717;50.240;8.406;2023-05-10T03:24:58;0.60;;;0.60;;
3407;SDS011;1717;50.240;8.406;2023-05-10T03:27:31;0.60;;;0.60;;
3407;SDS011;1717;50.240;8.406;2023-05-10T03:30:00;0.93;;;0.70;;
3407;SDS011;1717;50.240;8.406;2023-05-10T03:32:29;0.77;;;0.67;;
3407;SDS011;1717;50.240;8.406;2023-05-10T03:34:56;1.57;;;1.00;;
3407;SDS011;1717;50.240;8.406;2023-05-10T03:37:23;0.60;;;0.60;;
3407;SDS011;1717;50.240;8.406;2023-05-10T03:39:50;1.93;;;0.77;;
3407;SDS011;1717;50.240;8.406;2023-05-10T03:42:18;0.70;;;0.70;;
3407;SDS011;1717;50.240;8.406;2023-05-10T03:44:45;1.40;;;1.10;;
3407;SDS011;1717;50.240;8.406;2023-05-10T03:47:14;0.80;;;0.70;;
3407;SDS011;1717;50.240;8.406;2023-05-10T03:49:40;0.70;;;0.60;;
3407;SDS011;1717;50.240;8.406;2023-05-10T03:52:08;1.80;;;0.70;;
3407;SDS011;1717;50.240;8.406;2023-05-10T03:54:34;0.87;;;0.87;;
3407;SDS011;1717;50.240;8.406;2023-05-10T03:57:01;1.10;;;1.00;;
3407;SDS011;1717;50.240;8.406;2023-05-10T03:59:30;0.87;;;0.87;;
3407;SDS011;1717;50.240;8.406;2023-05-10T04:01:57;0.73;;;0.73;;
3407;SDS011;1717;50.240;8.406;2023-05-10T04:04:23;1.73;;;0.93;;
3407;SDS011;1717;50.240;8.406;2023-05-10T04:06:50;1.23;;;1.03;;
3407;SDS011;1717;50.240;8.406;2023-05-10T04:09:17;1.13;;;1.03;;
3407;SDS011;1717;50.240;8.406;2023-05-10T04:11:44;0.80;;;0.80;;
3407;SDS011;1717;50.240;8.406;2023-05-10T04:14:11;1.00;;;0.90;;
3407;SDS011;1717;50.240;8.406;2023-05-10T04:16:40;1.03;;;0.93;;
3407;SDS011;1717;50.240;8.406;2023-05-10T04:19:07;1.63;;;0.90;;
3407;SDS011;1717;50.240;8.406;2023-05-10T04:21:34;0.97;;;0.87;;
3407;SDS011;1717;50.240;8.406;2023-05-10T04:24:00;1.10;;;1.00;;
3407;SDS011;1717;50.240;8.406;2023-05-10T04:26:27;2.00;;;1.10;;
3407;SDS011;1717;50.240;8.406;2023-05-10T04:28:54;1.10;;;1.00;;
3407;SDS011;1717;50.240;8.406;2023-05-10T04:31:21;2.13;;;1.70;;
3407;SDS011;1717;50.240;8.406;2023-05-10T04:33:49;1.40;;;1.30;;
3407;SDS011;1717;50.240;8.406;2023-05-10T04:36:16;1.77;;;1.00;;
3407;SDS011;1717;50.240;8.406;2023-05-10T04:38:43;1.53;;;1.20;;
3407;SDS011;1717;50.240;8.406;2023-05-10T04:41:10;1.53;;;1.43;;
3407;SDS011;1717;50.240;8.406;2023-05-10T04:43:37;1.67;;;1.20;;
3407;SDS011;1717;50.240;8.406;2023-05-10T04:46:05;1.60;;;1.50;;
3407;SDS011;1717;50.240;8.406;2023-05-10T04:48:32;1.10;;;1.00;;
3407;SDS011;1717;50.240;8.406;2023-05-10T04:51:00;1.40;;;1.30;;
3407;SDS011;1717;50.240;8.406;2023-05-10T04:53:28;2.20;;;1.60;;
3407;SDS011;1717;50.240;8.406;2023-05-10T04:55:55;2.13;;;1.60;;
3407;SDS011;1717;50.240;8.406;2023-05-10T04:58:22;1.70;;;1.60;;
3407;SDS011;1717;50.240;8.406;2023-05-10T05:00:49;1.37;;;1.27;;
3407;SDS011;1717;50.240;8.406;2023-05-10T05:03:15;1.37;;;1.27;;
3407;SDS011;1717;50.240;8.406;2023-05-10T05:05:43;2.00;;;1.60;;
3407;SDS011;1717;50.240;8.406;2023-05-10T05:08:11;1.63;;;1.53;;
3407;SDS011;1717;50.240;8.406;2023-05-10T05:10:38;1.40;;;1.30;;
3407;SDS011;1717;50.240;8.406;2023-05-10T05:13:04;1.83;;;1.73;;
3407;SDS011;1717;50.240;8.406;2023-05-10T05:15:31;1.70;;;1.50;;
3407;SDS011;1717;50.240;8.406;2023-05-10T05:17:59;1.67;;;1.43;;
3407;SDS011;1717;50.240;8.406;2023-05-10T05:20:25;4.33;;;2.37;;
3407;SDS011;1717;50.240;8.406;2023-05-10T05:22:52;4.70;;;1.90;;
3407;SDS011;1717;50.240;8.406;2023-05-10T05:25:21;2.00;;;1.80;;
3407;SDS011;1717;50.240;8.406;2023-05-10T05:27:48;3.90;;;1.53;;
3407;SDS011;1717;50.240;8.406;2023-05-10T05:30:14;1.60;;;1.50;;
3407;SDS011;1717;50.240;8.406;2023-05-10T05:32:41;3.40;;;2.10;;
3407;SDS011;1717;50.240;8.406;2023-05-10T05:35:08;1.50;;;1.40;;
3407;SDS011;1717;50.240;8.406;2023-05-10T05:37:36;2.33;;;1.70;;
3407;SDS011;1717;50.240;8.406;2023-05-10T05:40:03;2.23;;;2.10;;
3407;SDS011;1717;50.240;8.406;2023-05-10T05:42:32;1.60;;;1.50;;
3407;SDS011;1717;50.240;8.406;2023-05-10T05:44:59;1.90;;;1.80;;
3407;SDS011;1717;50.240;8.406;2023-05-10T05:47:25;1.80;;;1.63;;
3407;SDS011;1717;50.240;8.406;2023-05-10T05:49:52;1.87;;;1.73;;
3407;SDS011;1717;50.240;8.406;2023-05-10T05:52:20;1.80;;;1.70;;
3407;SDS011;1717;50.240;8.406;2023-05-10T05:54:47;2.53;;;2.33;;
3407;SDS011;1717;50.240;8.406;2023-05-10T05:57:14;1.60;;;1.50;;
3407;SDS011;1717;50.240;8.406;2023-05-10T05:59:42;2.53;;;2.30;;
3407;SDS011;1717;50.240;8.406;2023-05-10T06:02:09;4.63;;;1.90;;
3407;SDS011;1717;50.240;8.406;2023-05-10T06:04:36;2.60;;;2.40;;
3407;SDS011;1717;50.240;8.406;2023-05-10T06:07:03;2.10;;;1.90;;
3407;SDS011;1717;50.240;8.406;2023-05-10T06:09:30;2.00;;;1.90;;
3407;SDS011;1717;50.240;8.406;2023-05-10T06:11:56;2.63;;;2.40;;
3407;SDS011;1717;50.240;8.406;2023-05-10T06:14:23;6.03;;;1.87;;
3407;SDS011;1717;50.240;8.406;2023-05-10T06:16:51;4.87;;;2.10;;
3407;SDS011;1717;50.240;8.406;2023-05-10T06:19:18;2.13;;;1.93;;
3407;SDS011;1717;50.240;8.406;2023-05-10T06:21:45;3.07;;;2.27;;
3407;SDS011;1717;50.240;8.406;2023-05-10T06:24:12;2.03;;;1.83;;
3407;SDS011;1717;50.240;8.406;2023-05-10T06:26:38;2.77;;;2.50;;
3407;SDS011;1717;50.240;8.406;2023-05-10T06:29:05;2.50;;;1.87;;
3407;SDS011;1717;50.240;8.406;2023-05-10T06:31:32;2.10;;;1.70;;
3407;SDS011;1717;50.240;8.406;2023-05-10T06:34:00;3.40;;;2.30;;
3407;SDS011;1717;50.240;8.406;2023-05-10T06:36:27;2.20;;;2.00;;
3407;SDS011;1717;50.240;8.406;2023-05-10T06:38:54;1.87;;;1.77;;
3407;SDS011;1717;50.240;8.406;2023-05-10T06:41:21;2.30;;;1.70;;
3407;SDS011;1717;50.240;8.406;2023-05-10T06:43:47;2.53;;;2.00;;
3407;SDS011;1717;50.240;8.406;2023-05-10T06:46:14;2.37;;;2.03;;
3407;SDS011;1717;50.240;8.406;2023-05-10T06:48:41;4.80;;;2.20;;
3407;SDS011;1717;50.240;8.406;2023-05-10T06:51:09;1.87;;;1.67;;
3407;SDS011;1717;50.240;8.406;2023-05-10T06:53:36;1.37;;;1.27;;
3407;SDS011;1717;50.240;8.406;2023-05-10T06:56:03;2.00;;;1.90;;
3407;SDS011;1717;50.240;8.406;2023-05-10T06:58:30;1.60;;;1.50;;
3407;SDS011;1717;50.240;8.406;2023-05-10T07:01:01;1.80;;;1.70;;
3407;SDS011;1717;50.240;8.406;2023-05-10T07:03:28;1.80;;;1.67;;
3407;SDS011;1717;50.240;8.406;2023-05-10T07:05:59;2.30;;;2.20;;
3407;SDS011;1717;50.240;8.406;2023-05-10T07:08:29;1.97;;;1.77;;
3407;SDS011;1717;50.240;8.406;2023-05-10T07:11:00;2.00;;;1.80;;
3407;SDS011;1717;50.240;8.406;2023-05-10T07:13:28;2.00;;;1.80;;
3407;SDS011;1717;50.240;8.406;2023-05-10T07:15:55;3.07;;;1.60;;
3407;SDS011;1717;50.240;8.406;2023-05-10T07:18:22;2.90;;;1.57;;
3407;SDS011;1717;50.240;8.406;2023-05-10T07:20:49;2.33;;;2.10;;
3407;SDS011;1717;50.240;8.406;2023-05-10T07:23:15;2.50;;;2.30;;
3407;SDS011;1717;50.240;8.406;2023-05-10T07:25:45;2.40;;;1.83;;
3407;SDS011;1717;50.240;8.406;2023-05-10T07:28:13;5.23;;;2.00;;
3407;SDS011;1717;50.240;8.406;2023-05-10T07:30:40;1.60;;;1.47;;
3407;SDS011;1717;50.240;8.406;2023-05-10T07:33:07;4.60;;;2.20;;
3407;SDS011;1717;50.240;8.406;2023-05-10T07:35:34;2.07;;;1.90;;
3407;SDS011;1717;50.240;8.406;2023-05-10T07:38:01;2.27;;;2.07;;
3407;SDS011;1717;50.240;8.406;2023-05-10T07:40:28;3.30;;;1.90;;
3407;SDS011;1717;50.240;8.406;2023-05-10T07:42:57;2.77;;;2.27;;
3407;SDS011;1717;50.240;8.406;2023-05-10T07:45:24;4.03;;;2.03;;
3407;SDS011;1717;50.240;8.406;2023-05-10T07:47:51;2.30;;;2.10;;
3407;SDS011;1717;50.240;8.406;2023-05-10T07:50:18;1.80;;;1.70;;
3407;SDS011;1717;50.240;8.406;2023-05-10T07:52:46;4.73;;;2.23;;
3407;SDS011;1717;50.240;8.406;2023-05-10T07:55:13;2.80;;;1.77;;
3407;SDS011;1717;50.240;8.406;2023-05-10T07:57:40;1.70;;;1.60;;
3407;SDS011;1717;50.240;8.406;2023-05-10T08:00:15;3.87;;;2.17;;
3407;SDS011;1717;50.240;8.406;2023-05-10T08:02:44;3.43;;;1.70;;
3407;SDS011;1717;50.240;8.406;2023-05-10T08:05:10;2.33;;;2.13;;
3407;SDS011;1717;50.240;8.406;2023-05-10T08:07:38;3.00;;;2.20;;
3407;SDS011;1717;50.240;8.406;2023-05-10T08:10:06;2.00;;;1.80;;
3407;SDS011;1717;50.240;8.406;2023-05-10T08:12:34;1.90;;;1.80;;
3407;SDS011;1717;50.240;8.406;2023-05-10T08:15:01;2.10;;;1.90;;
3407;SDS011;1717;50.240;8.406;2023-05-10T08:17:29;5.47;;;2.20;;
3407;SDS011;1717;50.240;8.406;2023-05-10T08:19:56;2.50;;;2.30;;
3407;SDS011;1717;50.240;8.406;2023-05-10T08:22:23;2.90;;;2.03;;
3407;SDS011;1717;50.240;8.406;2023-05-10T08:24:50;2.93;;;2.10;;
3407;SDS011;1717;50.240;8.406;2023-05-10T08:27:17;3.10;;;1.67;;
3407;SDS011;1717;50.240;8.406;2023-05-10T08:29:43;2.07;;;1.97;;
3407;SDS011;1717;50.240;8.406;2023-05-10T08:32:10;2.50;;;2.30;;
3407;SDS011;1717;50.240;8.406;2023-05-10T08:34:38;2.30;;;2.10;;
3407;SDS011;1717;50.240;8.406;2023-05-10T08:37:05;4.00;;;2.50;;
3407;SDS011;1717;50.240;8.406;2023-05-10T08:39:33;2.27;;;2.07;;
3407;SDS011;1717;50.240;8.406;2023-05-10T08:42:01;2.40;;;2.13;;
3407;SDS011;1717;50.240;8.406;2023-05-10T08:44:30;2.50;;;2.07;;
3407;SDS011;1717;50.240;8.406;2023-05-10T08:46:59;2.60;;;2.23;;
3407;SDS011;1717;50.240;8.406;2023-05-10T08:49:28;5.47;;;2.37;;
3407;SDS011;1717;50.240;8.406;2023-05-10T08:51:59;3.00;;;2.50;;
3407;SDS011;1717;50.240;8.406;2023-05-10T08:54:31;4.30;;;2.30;;
3407;SDS011;1717;50.240;8.406;2023-05-10T08:56:58;3.60;;;2.73;;
3407;SDS011;1717;50.240;8.406;2023-05-10T08:59:25;2.40;;;2.20;;
3407;SDS011;1717;50.240;8.406;2023-05-10T09:01:52;3.50;;;2.10;;
3407;SDS011;1717;50.240;8.406;2023-05-10T09:04:21;2.57;;;2.07;;
3407;SDS011;1717;50.240;8.406;2023-05-10T09:06:48;2.97;;;2.40;;
3407;SDS011;1717;50.240;8.406;2023-05-10T09:09:17;3.50;;;2.37;;
3407;SDS011;1717;50.240;8.406;2023-05-10T09:11:44;3.40;;;2.40;;
3407;SDS011;1717;50.240;8.406;2023-05-10T09:14:12;3.37;;;2.93;;
3407;SDS011;1717;50.240;8.406;2023-05-10T09:16:39;2.80;;;2.47;;
3407;SDS011;1717;50.240;8.406;2023-05-10T09:19:06;3.83;;;2.83;;
3407;SDS011;1717;50.240;8.406;2023-05-10T09:21:34;4.50;;;2.80;;
3407;SDS011;1717;50.240;8.406;2023-05-10T09:24:03;2.80;;;2.43;;
3407;SDS011;1717;50.240;8.406;2023-05-10T09:26:32;6.20;;;2.83;;
3407;SDS011;1717;50.240;8.406;2023-05-10T09:29:00;2.07;;;1.87;;
3407;SDS011;1717;50.240;8.406;2023-05-10T09:31:44;4.17;;;2.50;;
3407;SDS011;1717;50.240;8.406;2023-05-10T09:34:15;7.40;;;2.83;;
3407;SDS011;1717;50.240;8.406;2023-05-10T09:36:53;3.30;;;2.00;;
3407;SDS011;1717;50.240;8.406;2023-05-10T09:39:21;3.23;;;2.40;;
3407;SDS011;1717;50.240;8.406;2023-05-10T09:41:58;2.73;;;2.30;;
3407;SDS011;1717;50.240;8.406;2023-05-10T09:44:28;3.40;;;2.63;;
3407;SDS011;1717;50.240;8.406;2023-05-10T09:46:55;2.70;;;2.50;;
3407;SDS011;1717;50.240;8.406;2023-05-10T09:49:22;3.60;;;2.43;;
3407;SDS011;1717;50.240;8.406;2023-05-10T09:51:59;4.77;;;2.90;;
3407;SDS011;1717;50.240;8.406;2023-05-10T09:54:27;3.53;;;2.60;;
3407;SDS011;1717;50.240;8.406;2023-05-10T09:56:54;2.50;;;2.30;;
3407;SDS011;1717;50.240;8.406;2023-05-10T09:59:23;2.50;;;2.23;;
3407;SDS011;1717;50.240;8.406;2023-05-10T10:01:52;3.30;;;2.00;;
3407;SDS011;1717;50.240;8.406;2023-05-10T10:04:19;2.43;;;2.23;;
3407;SDS011;1717;50.240;8.406;2023-05-10T10:06:47;2.53;;;1.90;;
3407;SDS011;1717;50.240;8.406;2023-05-10T10:09:25;3.73;;;2.03;;
3407;SDS011;1717;50.240;8.406;2023-05-10T10:11:53;2.10;;;1.90;;
3407;SDS011;1717;50.240;8.406;2023-05-10T10:14:22;2.43;;;2.00;;
3407;SDS011;1717;50.240;8.406;2023-05-10T10:16:50;4.43;;;2.00;;
3407;SDS011;1717;50.240;8.406;2023-05-10T10:19:17;3.50;;;2.30;;
3407;SDS011;1717;50.240;8.406;2023-05-10T10:21:44;3.17;;;2.17;;
3407;SDS011;1717;50.240;8.406;2023-05-10T10:24:11;7.30;;;3.63;;
3407;SDS011;1717;50.240;8.406;2023-05-10T10:26:38;1.77;;;1.67;;
3407;SDS011;1717;50.240;8.406;2023-05-10T10:29:09;2.10;;;1.73;;
3407;SDS011;1717;50.240;8.406;2023-05-10T10:31:47;3.43;;;1.70;;
3407;SDS011;1717;50.240;8.406;2023-05-10T10:34:22;2.70;;;1.60;;
3407;SDS011;1717;50.240;8.406;2023-05-10T10:36:53;1.27;;;1.17;;
3407;SDS011;1717;50.240;8.406;2023-05-10T10:39:21;2.30;;;1.10;;
3407;SDS011;1717;50.240;8.406;2023-05-10T10:41:50;2.40;;;1.30;;
3407;SDS011;1717;50.240;8.406;2023-05-10T10:47:10;0.90;;;0.90;;
3407;SDS011;1717;50.240;8.406;2023-05-10T10:50:04;2.90;;;1.77;;
3407;SDS011;1717;50.240;8.406;2023-05-10T10:52:33;2.47;;;1.30;;
3407;SDS011;1717;50.240;8.406;2023-05-10T10:55:01;1.63;;;1.10;;
3407;SDS011;1717;50.240;8.406;2023-05-10T10:57:33;1.07;;;1.00;;
3407;SDS011;1717;50.240;8.406;2023-05-10T11:00:26;1.30;;;1.20;;
3407;SDS011;1717;50.240;8.406;2023-05-10T11:02:57;2.00;;;1.07;;
3407;SDS011;1717;50.240;8.406;2023-05-10T11:05:33;1.60;;;1.43;;
3407;SDS011;1717;50.240;8.406;2023-05-10T11:08:06;1.43;;;0.83;;
3407;SDS011;1717;50.240;8.406;2023-05-10T11:10:50;3.30;;;1.00;;
3407;SDS011;1717;50.240;8.406;2023-05-10T11:13:27;2.03;;;0.97;;
3407;SDS011;1717;50.240;8.406;2023-05-10T11:15:55;1.63;;;1.00;;
3407;SDS011;1717;50.240;8.406;2023-05-10T11:18:25;1.43;;;1.10;;
3407;SDS011;1717;50.240;8.406;2023-05-10T11:20:55;1.10;;;0.93;;
3407;SDS011;1717;50.240;8.406;2023-05-10T11:23:28;1.40;;;1.00;;
3407;SDS011;1717;50.240;8.406;2023-05-10T11:25:56;3.90;;;1.30;;
3407;SDS011;1717;50.240;8.406;2023-05-10T11:28:23;4.60;;;1.57;;
3407;SDS011;1717;50.240;8.406;2023-05-10T11:30:51;1.37;;;1.00;;
3407;SDS011;1717;50.240;8.406;2023-05-10T11:33:19;2.10;;;1.00;;
3407;SDS011;1717;50.240;8.406;2023-05-10T11:35:48;3.20;;;1.23;;
3407;SDS011;1717;50.240;8.406;2023-05-10T11:38:15;1.90;;;1.20;;
3407;SDS011;1717;50.240;8.406;2023-05-10T11:40:42;1.30;;;1.03;;
3407;SDS011;1717;50.240;8.406;2023-05-10T11:43:09;2.67;;;0.90;;
3407;SDS011;1717;50.240;8.406;2023-05-10T11:45:37;1.60;;;1.50;;
3407;SDS011;1717;50.240;8.406;2023-05-10T11:48:06;1.83;;;0.80;;
3407;SDS011;1717;50.240;8.406;2023-05-10T11:50:33;2.97;;;1.30;;
3407;SDS011;1717;50.240;8.406;2023-05-10T11:53:01;1.60;;;0.77;;
3407;SDS011;1717;50.240;8.406;2023-05-10T11:55:28;2.97;;;1.03;;
3407;SDS011;1717;50.240;8.406;2023-05-10T11:57:59;3.10;;;1.03;;
3407;SDS011;1717;50.240;8.406;2023-05-10T12:00:27;2.30;;;1.00;;
3407;SDS011;1717;50.240;8.406;2023-05-10T12:02:54;3.27;;;0.90;;
3407;SDS011;1717;50.240;8.406;2023-05-10T12:05:21;1.00;;;1.00;;
3407;SDS011;1717;50.240;8.406;2023-05-10T12:07:48;1.13;;;1.00;;
3407;SDS011;1717;50.240;8.406;2023-05-10T12:10:17;0.73;;;0.73;;
3407;SDS011;1717;50.240;8.406;2023-05-10T12:12:52;1.17;;;1.00;;
3407;SDS011;1717;50.240;8.406;2023-05-10T12:15:19;2.03;;;0.90;;
3407;SDS011;1717;50.240;8.406;2023-05-10T12:17:47;2.03;;;0.80;;
3407;SDS011;1717;50.240;8.406;2023-05-10T12:20:15;1.67;;;0.97;;
3407;SDS011;1717;50.240;8.406;2023-05-10T12:22:44;1.87;;;1.20;;
3407;SDS011;1717;50.240;8.406;2023-05-10T12:25:12;2.50;;;1.03;;
3407;SDS011;1717;50.240;8.406;2023-05-10T12:27:40;1.53;;;0.90;;
3407;SDS011;1717;50.240;8.406;2023-05-10T12:30:13;0.87;;;0.80;;
3407;SDS011;1717;50.240;8.406;2023-05-10T12:32:45;3.63;;;1.07;;
3407;SDS011;1717;50.240;8.406;2023-05-10T12:35:12;1.63;;;0.80;;
3407;SDS011;1717;50.240;8.406;2023-05-10T12:37:41;1.23;;;1.20;;
3407;SDS011;1717;50.240;8.406;2023-05-10T12:40:09;0.93;;;0.90;;
3407;SDS011;1717;50.240;8.406;2023-05-10T12:42:37;1.10;;;0.80;;
3407;SDS011;1717;50.240;8.406;2023-05-10T12:45:07;0.60;;;0.60;;
3407;SDS011;1717;50.240;8.406;2023-05-10T12:47:35;1.27;;;0.97;;
3407;SDS011;1717;50.240;8.406;2023-05-10T12:50:02;1.73;;;1.00;;
3407;SDS011;1717;50.240;8.406;2023-05-10T12:52:30;1.43;;;0.60;;
3407;SDS011;1717;50.240;8.406;2023-05-10T12:54:58;0.77;;;0.70;;
3407;SDS011;1717;50.240;8.406;2023-05-10T12:57:25;1.20;;;0.60;;
3407;SDS011;1717;50.240;8.406;2023-05-10T12:59:52;1.10;;;0.70;;
3407;SDS011;1717;50.240;8.406;2023-05-10T13:02:20;2.73;;;0.70;;
3407;SDS011;1717;50.240;8.406;2023-05-10T13:04:48;0.87;;;0.60;;
3407;SDS011;1717;50.240;8.406;2023-05-10T13:07:15;1.50;;;0.37;;
3407;SDS011;1717;50.240;8.406;2023-05-10T13:09:42;0.80;;;0.80;;
3407;SDS011;1717;50.240;8.406;2023-05-10T13:12:08;0.80;;;0.70;;
3407;SDS011;1717;50.240;8.406;2023-05-10T13:14:36;1.83;;;0.63;;
3407;SDS011;1717;50.240;8.406;2023-05-10T13:17:03;0.70;;;0.70;;
3407;SDS011;1717;50.240;8.406;2023-05-10T13:19:31;0.70;;;0.70;;
3407;SDS011;1717;50.240;8.406;2023-05-10T13:21:58;0.90;;;0.60;;
3407;SDS011;1717;50.240;8.406;2023-05-10T13:24:24;1.00;;;0.90;;
3407;SDS011;1717;50.240;8.406;2023-05-10T13:26:51;0.70;;;0.50;;
3407;SDS011;1717;50.240;8.406;2023-05-10T13:29:18;1.53;;;0.70;;
3407;SDS011;1717;50.240;8.406;2023-05-10T13:31:47;0.63;;;0.63;;
3407;SDS011;1717;50.240;8.406;2023-05-10T13:34:14;0.67;;;0.60;;
3407;SDS011;1717;50.240;8.406;2023-05-10T13:36:42;1.77;;;0.80;;
3407;SDS011;1717;50.240;8.406;2023-05-10T13:39:10;2.00;;;0.90;;
3407;SDS011;1717;50.240;8.406;2023-05-10T13:41:37;1.07;;;0.80;;
3407;SDS011;1717;50.240;8.406;2023-05-10T13:44:03;1.00;;;0.90;;
3407;SDS011;1717;50.240;8.406;2023-05-10T13:46:30;3.33;;;0.97;;
3407;SDS011;1717;50.240;8.406;2023-05-10T13:48:57;3.67;;;0.83;;
3407;SDS011;1717;50.240;8.406;2023-05-10T13:51:24;0.80;;;0.60;;
3407;SDS011;1717;50.240;8.406;2023-05-10T13:53:52;0.60;;;0.60;;
3407;SDS011;1717;50.240;8.406;2023-05-10T13:56:19;1.87;;;0.77;;
3407;SDS011;1717;50.240;8.406;2023-05-10T13:58:46;0.73;;;0.73;;
3407;SDS011;1717;50.240;8.406;2023-05-10T14:01:13;1.03;;;0.93;;
3407;SDS011;1717;50.240;8.406;2023-05-10T14:03:40;0.90;;;0.70;;
3407;SDS011;1717;50.240;8.406;2023-05-10T14:06:07;0.93;;;0.77;;
3407;SDS011;1717;50.240;8.406;2023-05-10T14:08:34;0.80;;;0.80;;
3407;SDS011;1717;50.240;8.406;2023-05-10T14:11:03;0.80;;;0.80;;
3407;SDS011;1717;50.240;8.406;2023-05-10T14:13:30;2.30;;;0.97;;
3407;SDS011;1717;50.240;8.406;2023-05-10T14:15:56;4.13;;;0.83;;
3407;SDS011;1717;50.240;8.406;2023-05-10T14:18:25;0.73;;;0.73;;
3407;SDS011;1717;50.240;8.406;2023-05-10T14:20:52;3.60;;;0.80;;
3407;SDS011;1717;50.240;8.406;2023-05-10T14:23:19;1.60;;;1.13;;
3407;SDS011;1717;50.240;8.406;2023-05-10T14:25:49;1.57;;;0.97;;
3407;SDS011;1717;50.240;8.406;2023-05-10T14:28:17;0.87;;;0.70;;
3407;SDS011;1717;50.240;8.406;2023-05-10T14:30:45;1.77;;;1.27;;
3407;SDS011;1717;50.240;8.406;2023-05-10T14:33:12;1.10;;;1.00;;
3407;SDS011;1717;50.240;8.406;2023-05-10T14:35:39;0.73;;;0.70;;
3407;SDS011;1717;50.240;8.406;2023-05-10T14:38:06;0.70;;;0.70;;
3407;SDS011;1717;50.240;8.406;2023-05-10T14:40:33;1.30;;;0.53;;
3407;SDS011;1717;50.240;8.406;2023-05-10T14:43:00;1.07;;;0.97;;
3407;SDS011;1717;50.240;8.406;2023-05-10T14:45:29;2.50;;;0.93;;
3407;SDS011;1717;50.240;8.406;2023-05-10T14:47:56;0.70;;;0.70;;
3407;SDS011;1717;50.240;8.406;2023-05-10T14:50:24;2.17;;;0.77;;
3407;SDS011;1717;50.240;8.406;2023-05-10T14:52:51;1.47;;;0.90;;
3407;SDS011;1717;50.240;8.406;2023-05-10T14:55:18;1.60;;;0.90;;
3407;SDS011;1717;50.240;8.406;2023-05-10T14:57:45;1.07;;;0.90;;
3407;SDS011;1717;50.240;8.406;2023-05-10T15:00:14;3.90;;;1.40;;
3407;SDS011;1717;50.240;8.406;2023-05-10T15:02:45;0.70;;;0.70;;
3407;SDS011;1717;50.240;8.406;2023-05-10T15:05:13;1.13;;;1.00;;
3407;SDS011;1717;50.240;8.406;2023-05-10T15:07:40;1.13;;;0.90;;
3407;SDS011;1717;50.240;8.406;2023-05-10T15:10:09;1.30;;;0.60;;
3407;SDS011;1717;50.240;8.406;2023-05-10T15:12:36;0.90;;;0.90;;
3407;SDS011;1717;50.240;8.406;2023-05-10T15:15:04;0.77;;;0.77;;
3407;SDS011;1717;50.240;8.406;2023-05-10T15:17:31;1.40;;;0.77;;
3407;SDS011;1717;50.240;8.406;2023-05-10T15:19:59;0.70;;;0.70;;
3407;SDS011;1717;50.240;8.406;2023-05-10T15:22:27;0.70;;;0.70;;
3407;SDS011;1717;50.240;8.406;2023-05-10T15:24:55;1.17;;;0.70;;
3407;SDS011;1717;50.240;8.406;2023-05-10T15:27:22;6.33;;;1.73;;
3407;SDS011;1717;50.240;8.406;2023-05-10T15:29:48;2.40;;;1.00;;
3407;SDS011;1717;50.240;8.406;2023-05-10T15:32:15;1.00;;;0.90;;